• Join FlightAware (Why Join?)
  • Login
  • US Flag 
08:04PM EDT


 

Airport Tracker/Info


-or-


 

Live Flight TrackerFlight Track Log ✈ N25TN ✈ 21-Mar-2014 ✈ KFFZ - KRYN

Flight Track Log - Related Links

Times and Time Zones

All times are in EDT time to prevent confusion due to time zone crossing. See the N25TN flight status page for this flight to view local times or setup timezone preferences in your user account.

Time Position Orientation Groundspeed Altitude Reporting Facility
EDT Latitude Longitude Course Direction KTS MPH feet Rate Location/Type
04:21PM 33.4500 -111.7333 196° South 124 143 2,100  Level Phoenix TRACON
04:22PM 33.4000 -111.7500 196° South 173 199 4,100 960 Climbing Phoenix TRACON
04:23PM 33.3747 -111.7547 189° South 173 199 4,000 300 Descending Albuquerque Center
04:24PM 33.3275 -111.7697 195° South 177 204 4,600 660 Climbing Albuquerque Center
04:25PM 33.2836 -111.7747 185° South 163 188 5,400 840 Climbing Albuquerque Center
04:26PM 33.2425 -111.7897 197° South 158 182 6,400 1,320 Climbing Albuquerque Center
04:27PM 33.1925 -111.8047 194° South 158 182 8,200 1,620 Climbing Albuquerque Center
04:28PM 33.1539 -111.8356 214° Southwest 173 199 9,800 1,440 Climbing Albuquerque Center
04:29PM 33.1139 -111.8764 221° Southwest 188 216 11,200 1,200 Climbing Albuquerque Center
04:30PM 33.0761 -111.8997 207° Southwest 161 185 12,300 1,080 Climbing Albuquerque Center
04:31PM 33.0289 -111.8986 179° South 164 189 13,500 1,140 Climbing Albuquerque Center
04:32PM 32.9819 -111.9086 190° South 152 175 14,700 780 Climbing Albuquerque Center
04:33PM 32.9408 -111.9178 191° South 152 175 15,200 420 Climbing Albuquerque Center
04:34PM 32.8944 -111.9147 177° South 166 191 15,600 240 Climbing Albuquerque Center
04:35PM 32.8506 -111.8747 143° Southeast 192 221 15,800 -300 Climbing Albuquerque Center
04:36PM 32.7947 -111.8397 152° Southeast 224 258 15,000 -1,260 Descending Albuquerque Center
04:37PM 32.7339 -111.7967 149° Southeast 251 289 13,300 -1,800 Descending Albuquerque Center
04:38PM 32.6669 -111.7344 142° Southeast 255 293 11,400 -1,800 Descending Albuquerque Center
04:39PM 32.6133 -111.6819 140° Southeast 254 292 9,700 -1,380 Descending Albuquerque Center
04:40PM 32.5700 -111.6572 154° Southeast 223 257 9,000 -600 Descending Albuquerque Center
04:40PM 32.5611 -111.6436 128° Southeast 241 277 9,100 -180 Climbing Albuquerque Center
04:41PM 32.5406 -111.6372 165° South 209 241 8,900 60 Descending Albuquerque Center
04:41PM 32.5144 -111.6094 138° Southeast 218 251 9,200 180 Climbing Albuquerque Center
04:42PM 32.4942 -111.5964 151° Southeast 206 237 9,100 -540 Descending Albuquerque Center
04:42PM 32.4681 -111.5711 141° Southeast 206 237 8,700 -540 Descending Albuquerque Center
04:43PM 32.4486 -111.5481 135° Southeast 219 252 8,600 -600 Descending Albuquerque Center
04:43PM 32.4183 -111.5033 129° Southeast 218 251 8,100 -720 Descending Albuquerque Center
04:44PM 32.4019 -111.4822 133° Southeast 225 259 7,800 -600 Descending Albuquerque Center
04:44PM 32.3783 -111.4453 127° Southeast 224 258 7,500 -540 Descending Albuquerque Center
04:45PM 32.3614 -111.4272 138° Southeast 227 261 7,300 -540 Descending Albuquerque Center
04:45PM 32.3378 -111.3914 128° Southeast 225 259 7,000 -600 Descending Albuquerque Center
04:46PM 32.3194 -111.3756 144° Southeast 220 253 6,700 -1,080 Descending Albuquerque Center
04:47PM 32.2958 -111.3408 129° Southeast 220 253 5,900 -1,200 Descending Albuquerque Center
04:47PM 32.2744 -111.3194 140° Southeast 219 252 5,400 -780 Descending Albuquerque Center
04:48PM 32.2536 -111.2883 128° Southeast 220 253 5,100 -600 Descending Albuquerque Center
04:48PM 32.2319 -111.2653 138° Southeast 215 247 4,800 -120 Descending Albuquerque Center
04:49PM 32.2136 -111.2361 127° Southeast 220 253 5,000 -900 Climbing Albuquerque Center
04:49PM 32.1892 -111.2214 153° Southeast 201 231 3,900 -1,080 Descending Albuquerque Center
04:50PM 32.1594 -111.1789 130° Southeast 198 228 3,700 -120 Descending Albuquerque Center
04:51PM 32.1606 -111.1408 88° East 182 209 3,700  Level Albuquerque Center
04:53PM 32.1333 -111.1667 140° Southeast  Level FlightAware Approximate
05:00PM 32.1422 -111.1746 140° Southeast  Level Estimated